Time;durP1;ratioP1;P1;durP2;ratioP2;P2;SDS_P1;SDS_P2;PMS_P1;PMS_P2;Temp;Humidity;BMP_temperature;BMP_pressure;BME280_temperature;BME280_humidity;BME280_pressure;Samples;Min_cycle;Max_cycle;Signal;HPM_P1;HPM_P2
2022/01/11 00:00:09;;;;;;;139.98;60.00;;;;;;;5.37;48.59;102880.44;4948308;28;99039;-73
2022/01/11 00:02:39;;;;;;;138.95;59.90;;;;;;;5.16;48.61;102879.16;4953150;28;98832;-73
2022/01/11 00:05:06;;;;;;;145.80;62.47;;;;;;;5.02;49.59;102884.97;4949005;28;97674;-72
2022/01/11 00:07:34;;;;;;;134.75;59.10;;;;;;;5.12;49.60;102887.81;4955041;28;98729;-74
2022/01/11 00:10:01;;;;;;;136.02;60.03;;;;;;;5.08;49.03;102885.09;4951721;28;98896;-72
2022/01/11 00:12:27;;;;;;;136.30;58.95;;;;;;;5.09;49.93;102892.09;4956296;28;98869;-72
2022/01/11 00:14:53;;;;;;;136.10;60.25;;;;;;;5.24;49.25;102887.19;4957835;28;96886;-72
2022/01/11 00:17:21;;;;;;;138.70;60.33;;;;;;;5.13;48.84;102884.34;4956352;28;99376;-72
2022/01/11 00:19:49;;;;;;;138.32;60.47;;;;;;;5.05;49.64;102888.56;4955001;28;98674;-73
2022/01/11 00:22:19;;;;;;;140.75;57.25;;;;;;;5.20;48.88;102886.22;4950088;28;98960;-73
2022/01/11 00:24:44;;;;;;;144.75;60.05;;;;;;;5.45;49.58;102884.09;4947217;28;96774;-72
2022/01/11 00:27:11;;;;;;;;;;;;;;;5.33;49.36;102881.22;4952024;28;96812;-72
2022/01/11 00:29:41;;;;;;;134.67;57.30;;;;;;;5.33;49.58;102883.84;4953203;28;99094;-72
2022/01/11 00:32:12;;;;;;;138.02;60.45;;;;;;;5.20;49.49;102881.00;4960164;28;99195;-73
2022/01/11 00:34:48;;;;;;;138.32;60.70;;;;;;;5.22;49.64;102889.78;4953373;28;96881;-74
2022/01/11 00:37:14;;;;;;;139.60;59.77;;;;;;;5.19;49.70;102884.44;4947660;28;96817;-72
2022/01/11 00:39:42;;;;;;;142.00;61.10;;;;;;;5.32;48.92;102885.59;4955426;28;99418;-72
2022/01/11 00:42:08;;;;;;;131.68;57.45;;;;;;;5.23;49.44;102877.56;4953339;28;98974;-72
2022/01/11 00:44:35;;;;;;;132.48;59.17;;;;;;;5.40;48.89;102883.13;4956055;28;96913;-73
2022/01/11 00:47:01;;;;;;;139.05;60.28;;;;;;;5.54;49.14;102889.53;4954549;28;98955;-73
2022/01/11 00:49:27;;;;;;;139.43;60.40;;;;;;;5.19;49.41;102894.06;4950623;28;99176;-73
2022/01/11 00:51:55;;;;;;;129.65;58.85;;;;;;;4.96;49.11;102893.59;4951712;28;99368;-73
2022/01/11 00:54:21;;;;;;;147.38;62.53;;;;;;;5.04;49.50;102905.13;4955499;28;97224;-72
2022/01/11 00:56:48;;;;;;;138.38;60.25;;;;;;;5.25;49.24;102912.53;4955417;28;98455;-72
2022/01/11 00:59:14;;;;;;;150.13;62.28;;;;;;;5.16;48.97;102921.09;4953145;28;99366;-72
2022/01/11 01:01:40;;;;;;;151.65;63.75;;;;;;;4.64;49.94;102933.88;4954788;28;98956;-72
2022/01/11 01:04:08;;;;;;;149.15;65.32;;;;;;;4.61;50.60;102929.44;4953090;28;96814;-73
2022/01/11 01:06:35;;;;;;;157.88;64.40;;;;;;;4.80;49.89;102931.66;4955523;28;97076;-72
2022/01/11 01:09:03;;;;;;;149.73;64.90;;;;;;;4.83;50.34;102946.56;4948448;28;99013;-73
2022/01/11 01:11:29;;;;;;;148.32;64.45;;;;;;;4.51;50.69;102942.31;4956901;28;99348;-73
2022/01/11 01:13:55;;;;;;;149.52;66.72;;;;;;;4.57;50.94;102937.22;4954546;28;96816;-73
2022/01/11 01:16:22;;;;;;;161.48;67.95;;;;;;;4.75;50.76;102938.53;4955560;28;98658;-73
2022/01/11 01:21:24;;;;;;;157.50;65.75;;;;;;;3.87;51.96;102951.13;4926122;28;99640;-75
2022/01/11 01:23:50;;;;;;;152.55;65.97;;;;;;;4.36;52.64;102953.28;4934614;28;97339;-75
2022/01/11 01:26:18;;;;;;;150.48;66.38;;;;;;;4.37;51.98;102960.28;4935440;28;96813;-76
2022/01/11 01:28:45;;;;;;;154.38;67.47;;;;;;;4.59;50.94;102956.47;4935423;28;97842;-74
2022/01/11 01:31:11;;;;;;;162.43;66.15;;;;;;;4.77;50.74;102957.78;4907521;28;99023;-74
2022/01/11 01:33:38;;;;;;;158.93;66.32;;;;;;;4.73;50.90;102955.03;4912984;28;97370;-74
2022/01/11 01:36:11;;;;;;;158.43;63.92;;;;;;;4.07;52.84;102964.75;4908779;28;97633;-73
2022/01/11 01:38:38;;;;;;;155.57;63.90;;;;;;;4.23;52.62;102961.66;4907860;28;99756;-74
2022/01/11 01:41:12;;;;;;;157.32;63.00;;;;;;;4.08;51.98;102959.53;4912540;28;99201;-74
2022/01/11 01:43:39;;;;;;;160.25;60.22;;;;;;;3.38;52.89;102965.44;4910591;28;98641;-73
2022/01/11 01:46:06;;;;;;;149.52;61.40;;;;;;;2.83;55.48;102972.44;4906480;28;99084;-73
2022/01/11 01:48:35;;;;;;;155.93;65.50;;;;;;;3.22;54.72;102974.53;4910993;28;99172;-74
2022/01/11 01:51:01;;;;;;;160.68;62.47;;;;;;;3.63;54.09;102973.97;4910946;28;98899;-73
2022/01/11 01:53:28;;;;;;;159.82;64.85;;;;;;;4.04;53.81;102972.50;4914919;28;98819;-74
2022/01/11 01:55:55;;;;;;;161.35;66.72;;;;;;;4.20;52.48;102975.53;4910778;28;96977;-73
2022/01/11 01:58:22;;;;;;;155.02;64.97;;;;;;;4.30;51.65;102977.56;4912805;28;99216;-74
2022/01/11 02:00:54;;;;;;;173.88;67.40;;;;;;;4.20;52.52;102974.69;4909611;28;98227;-74
2022/01/11 02:03:26;;;;;;;166.93;69.63;;;;;;;4.54;52.42;102984.25;4911493;28;97104;-74
2022/01/11 02:05:53;;;;;;;153.32;62.90;;;;;;;4.36;51.20;102982.06;4910960;28;96823;-74
2022/01/11 02:08:20;;;;;;;148.68;62.20;;;;;;;4.27;51.44;102985.31;4913211;28;99388;-74
2022/01/11 02:10:47;;;;;;;159.00;62.38;;;;;;;4.07;51.64;102985.69;4908574;28;99088;-74
2022/01/11 02:13:13;;;;;;;153.60;63.17;;;;;;;4.23;51.87;102982.59;4911316;28;96881;-75
2022/01/11 02:15:39;;;;;;;157.98;64.10;;;;;;;4.24;51.36;102984.38;4917486;28;97223;-74
2022/01/11 02:18:09;;;;;;;167.10;64.40;;;;;;;4.28;51.07;102989.72;4906526;28;98948;-75
2022/01/11 02:20:38;;;;;;;152.50;63.22;;;;;;;4.59;51.53;102987.91;4912214;28;99537;-75
2022/01/11 02:23:04;;;;;;;155.07;62.08;;;;;;;4.56;50.90;102988.69;4908344;28;97355;-74
2022/01/11 02:25:31;;;;;;;152.98;60.92;;;;;;;4.48;51.16;102989.34;4909137;28;97189;-75
2022/01/11 02:27:57;;;;;;;147.65;59.33;;;;;;;4.07;51.62;102997.00;4904997;28;99203;-75
2022/01/11 02:30:24;;;;;;;159.05;60.10;;;;;;;3.96;52.18;102998.44;4910600;28;99362;-76
2022/01/11 02:32:51;;;;;;;154.10;61.03;;;;;;;4.13;52.36;103004.16;4912101;28;98945;-74
2022/01/11 02:35:17;;;;;;;150.63;60.60;;;;;;;4.57;51.74;103003.56;4908007;28;96857;-75
2022/01/11 02:37:46;;;;;;;161.77;63.42;;;;;;;3.95;52.62;103004.53;4911347;28;98965;-75
2022/01/11 02:40:14;;;;;;;164.60;63.05;;;;;;;3.95;52.85;103010.63;4910015;28;99454;-74
2022/01/11 02:42:40;;;;;;;148.35;57.22;;;;;;;3.86;53.20;103012.13;4913020;28;99174;-74
2022/01/11 02:45:12;;;;;;;166.40;61.35;;;;;;;3.94;53.60;103016.72;4912092;28;97589;-74
2022/01/11 02:47:39;;;;;;;163.45;61.35;;;;;;;3.71;54.35;103019.53;4912981;28;98277;-75
2022/01/11 02:50:06;;;;;;;162.30;60.70;;;;;;;3.88;53.40;103027.00;4907543;28;99523;-75
2022/01/11 02:52:32;;;;;;;164.90;58.78;;;;;;;4.03;52.71;103021.31;4911428;28;98715;-75
2022/01/11 02:55:00;;;;;;;150.35;57.33;;;;;;;3.73;53.37;103025.69;4916016;28;97022;-75
2022/01/11 02:57:27;;;;;;;156.48;56.17;;;;;;;3.45;53.81;103024.91;4918792;28;99347;-74
2022/01/11 02:59:53;;;;;;;167.02;57.88;;;;;;;3.69;53.47;103023.81;4912206;28;96907;-74
2022/01/11 03:02:19;;;;;;;157.55;55.67;;;;;;;3.30;53.77;103024.41;4911506;28;96820;-75
2022/01/11 03:04:46;;;;;;;162.80;58.63;;;;;;;3.67;53.99;103028.16;4910314;28;97185;-76
2022/01/11 03:07:12;;;;;;;159.38;55.63;;;;;;;3.68;53.90;103027.28;4917455;28;98873;-76
2022/01/11 03:09:52;;;;;;;154.55;55.00;;;;;;;3.07;55.12;103035.91;4909194;28;99192;-76
2022/01/11 03:12:23;;;;;;;162.88;56.85;;;;;;;2.84;56.33;103042.09;4904911;28;96969;-76
2022/01/11 03:14:49;;;;;;;161.63;56.15;;;;;;;2.96;56.23;103038.16;4907633;28;96817;-76
2022/01/11 03:17:15;;;;;;;159.23;55.78;;;;;;;3.44;54.88;103033.56;4913649;28;99110;-76
2022/01/11 03:19:42;;;;;;;158.23;55.35;;;;;;;3.51;54.51;103034.63;4906208;28;98696;-75
2022/01/11 03:22:08;;;;;;;158.65;55.47;;;;;;;3.22;55.20;103051.19;4909162;28;97916;-75
2022/01/11 03:24:34;;;;;;;155.38;55.58;;;;;;;3.11;55.01;103048.22;4907902;28;96853;-75
2022/01/11 03:27:01;;;;;;;154.88;54.15;;;;;;;3.34;54.62;103044.59;4909554;28;99241;-75
2022/01/11 03:29:28;;;;;;;152.13;53.13;;;;;;;3.61;54.44;103050.63;4901707;28;97978;-76
2022/01/11 03:31:55;;;;;;;163.32;56.72;;;;;;;3.82;54.10;103042.53;4906907;28;98729;-76
2022/01/11 03:34:21;;;;;;;162.23;56.60;;;;;;;3.86;53.85;103040.91;4914027;28;96795;-75
2022/01/11 03:36:47;;;;;;;164.98;54.95;;;;;;;4.20;52.49;103051.44;4911393;28;99344;-75
2022/01/11 03:39:14;;;;;;;158.27;53.17;;;;;;;4.31;51.81;103052.63;4911486;28;98917;-77
2022/01/11 03:41:40;;;;;;;148.23;55.55;;;;;;;4.57;51.62;103052.41;4909786;28;96919;-75
2022/01/11 03:44:06;;;;;;;166.18;56.83;;;;;;;4.84;50.89;103047.88;4904374;28;96827;-77
2022/01/11 03:46:34;;;;;;;167.38;55.53;;;;;;;4.68;51.44;103059.69;4908506;28;99153;-75
2022/01/11 03:49:00;;;;;;;148.55;54.08;;;;;;;4.41;50.61;103064.22;4908636;28;99415;-74
2022/01/11 03:51:27;;;;;;;148.55;52.90;;;;;;;4.57;51.66;103068.13;4913780;28;97839;-75
2022/01/11 03:54:01;;;;;;;139.15;50.33;;;;;;;4.48;51.31;103067.88;4914472;28;96875;-75
2022/01/11 03:56:27;;;;;;;140.57;50.67;;;;;;;4.55;51.32;103075.06;4914776;28;100775;-75
2022/01/11 03:58:54;;;;;;;145.90;50.42;;;;;;;4.69;50.89;103069.31;4914552;28;98997;-75
2022/01/11 04:01:21;;;;;;;137.63;49.45;;;;;;;4.76;50.76;103070.38;4914822;28;96796;-76
2022/01/11 04:03:50;;;;;;;139.95;47.33;;;;;;;4.58;51.32;103075.16;4910073;28;97289;-74
2022/01/11 04:06:16;;;;;;;137.25;47.13;;;;;;;4.85;50.96;103065.38;4914793;28;99044;-75
2022/01/11 04:08:45;;;;;;;127.70;45.20;;;;;;;4.72;50.26;103064.19;4906876;28;98230;-75
2022/01/11 04:11:12;;;;;;;129.38;46.47;;;;;;;4.44;51.63;103073.88;4914965;28;96791;-74
2022/01/11 04:13:39;;;;;;;130.02;45.70;;;;;;;4.18;51.52;103074.09;4912622;28;96960;-76
2022/01/11 04:16:06;;;;;;;133.73;46.53;;;;;;;4.19;52.04;103088.06;4905419;28;98795;-75
2022/01/11 04:18:32;;;;;;;134.15;46.88;;;;;;;4.20;51.83;103082.84;4907697;28;99067;-75
2022/01/11 04:21:00;;;;;;;132.27;47.10;;;;;;;4.38;51.62;103085.97;4911818;28;96955;-75
2022/01/11 04:23:27;;;;;;;132.68;46.85;;;;;;;4.57;51.46;103083.84;4915352;28;98018;-74
2022/01/11 04:25:53;;;;;;;130.30;47.13;;;;;;;4.77;51.05;103077.38;4911911;28;99489;-75
2022/01/11 04:28:23;;;;;;;128.35;44.90;;;;;;;4.57;51.56;103082.13;4914319;28;99180;-75
2022/01/11 04:30:49;;;;;;;125.93;44.50;;;;;;;4.78;50.47;103077.44;4909069;28;98344;-73
2022/01/11 04:33:16;;;;;;;128.98;44.90;;;;;;;4.70;50.87;103075.47;4909900;28;98327;-75
2022/01/11 04:35:44;;;;;;;125.60;44.13;;;;;;;4.71;50.98;103079.84;4904777;28;99278;-75
2022/01/11 04:38:12;;;;;;;120.22;40.70;;;;;;;4.36;51.76;103089.38;4914621;28;99151;-75
2022/01/11 04:40:38;;;;;;;126.43;42.08;;;;;;;4.20;51.50;103088.06;4912195;28;96800;-75
2022/01/11 04:43:05;;;;;;;132.10;45.03;;;;;;;4.29;52.46;103088.34;4908076;28;96942;-74
2022/01/11 04:45:31;;;;;;;127.22;43.58;;;;;;;3.98;52.25;103088.31;4910815;28;99196;-75
2022/01/11 04:47:57;;;;;;;127.40;44.28;;;;;;;4.04;52.75;103085.88;4909111;28;98938;-75
2022/01/11 04:50:25;;;;;;;124.78;42.45;;;;;;;4.13;52.29;103087.88;4913522;28;98239;-75
2022/01/11 04:52:51;;;;;;;127.90;43.28;;;;;;;4.26;51.96;103084.75;4914266;28;97453;-74
2022/01/11 04:55:19;;;;;;;125.18;41.53;;;;;;;4.16;52.61;103083.59;4912849;28;99475;-74
2022/01/11 04:57:46;;;;;;;133.05;43.58;;;;;;;4.12;52.96;103084.38;4910651;28;99081;-75
2022/01/11 05:00:14;;;;;;;120.20;40.25;;;;;;;4.13;52.72;103083.53;4910806;28;96806;-75
2022/01/11 05:02:42;;;;;;;127.40;42.38;;;;;;;4.19;52.46;103083.72;4917257;28;96879;-74
2022/01/11 05:05:09;;;;;;;122.40;40.78;;;;;;;4.32;51.95;103091.06;4915789;28;100088;-74
2022/01/11 05:07:35;;;;;;;124.95;42.13;;;;;;;4.20;52.01;103098.53;4906997;28;99075;-76
2022/01/11 05:10:04;;;;;;;131.45;44.35;;;;;;;3.85;52.77;103100.16;4906850;28;96891;-76
2022/01/11 05:12:34;;;;;;;116.88;40.55;;;;;;;4.07;52.29;103091.19;4904210;28;96833;-76
2022/01/11 05:15:00;;;;;;;127.78;42.13;;;;;;;4.27;52.70;103097.88;4908855;28;99215;-75
2022/01/11 05:17:27;;;;;;;118.88;41.85;;;;;;;4.42;52.07;103097.41;4906170;28;99208;-75
2022/01/11 05:19:53;;;;;;;118.18;40.28;;;;;;;4.43;51.37;103096.56;4909211;28;98929;-75
2022/01/11 05:22:20;;;;;;;116.05;41.25;;;;;;;4.45;51.23;103107.09;4906412;28;96740;-76
2022/01/11 05:24:46;;;;;;;126.88;41.80;;;;;;;4.63;51.24;103105.84;4912587;28;98987;-74
2022/01/11 05:27:14;;;;;;;118.72;39.78;;;;;;;4.66;50.68;103111.13;4906099;28;99364;-75
2022/01/11 05:29:42;;;;;;;121.40;39.75;;;;;;;4.65;51.28;103111.13;4906207;28;97733;-75
2022/01/11 05:32:09;;;;;;;130.88;41.67;;;;;;;4.64;50.49;103117.19;4907880;28;96914;-75
2022/01/11 05:34:35;;;;;;;120.25;42.30;;;;;;;4.53;50.97;103116.91;4913730;28;97958;-76
2022/01/11 05:37:02;;;;;;;118.90;40.25;;;;;;;4.55;50.67;103122.19;4909280;28;98052;-75
2022/01/11 05:39:28;;;;;;;116.40;38.45;;;;;;;4.35;51.10;103125.16;4902348;28;96844;-75
2022/01/11 05:41:54;;;;;;;116.88;38.70;;;;;;;4.16;51.58;103130.72;4910372;28;97229;-76
2022/01/11 05:44:21;;;;;;;113.68;35.92;;;;;;;4.04;51.49;103132.09;4904633;28;99337;-74
2022/01/11 05:46:49;;;;;;;107.70;37.17;;;;;;;3.80;52.37;103132.25;4910034;28;99324;-74
2022/01/11 05:49:16;;;;;;;123.80;38.47;;;;;;;3.92;52.02;103130.00;4908991;28;96783;-74
2022/01/11 05:51:42;;;;;;;117.57;38.38;;;;;;;3.90;52.81;103132.56;4909107;28;97646;-76
2022/01/11 05:54:09;;;;;;;115.18;39.10;;;;;;;4.41;51.48;103132.28;4910053;28;99023;-75
2022/01/11 05:56:35;;;;;;;116.65;37.72;;;;;;;4.20;51.16;103126.47;4911140;28;97797;-76
2022/01/11 05:59:02;;;;;;;119.47;38.33;;;;;;;3.68;53.59;103132.75;4911870;28;97763;-74
2022/01/11 06:01:28;;;;;;;117.70;39.50;;;;;;;4.04;52.50;103122.50;4902815;28;96866;-76
2022/01/11 06:03:56;;;;;;;114.75;38.72;;;;;;;4.22;52.40;103141.34;4903847;28;99048;-75
2022/01/11 06:06:22;;;;;;;108.97;38.10;;;;;;;4.16;52.28;103130.72;4905369;28;99085;-75
2022/01/11 06:08:49;;;;;;;124.35;40.17;;;;;;;4.29;52.03;103134.56;4906102;28;98836;-74
2022/01/11 06:11:15;;;;;;;108.22;38.40;;;;;;;4.54;51.91;103136.13;4912028;28;97328;-74
2022/01/11 06:13:42;;;;;;;107.45;37.72;;;;;;;4.55;50.96;103133.53;4910938;28;98215;-75
2022/01/11 06:16:08;;;;;;;105.25;36.60;;;;;;;4.56;50.01;103140.56;4902942;28;99053;-75
2022/01/11 06:18:35;;;;;;;108.30;36.22;;;;;;;3.88;52.87;103155.16;4902376;28;96814;-74
2022/01/11 06:21:03;;;;;;;118.97;38.25;;;;;;;4.10;52.53;103150.59;4896197;28;96907;-75
2022/01/11 06:23:29;;;;;;;110.78;37.25;;;;;;;4.11;52.36;103154.97;4905648;28;98971;-75
2022/01/11 06:25:56;;;;;;;94.40;35.45;;;;;;;3.94;51.48;103151.84;4907290;28;98960;-74
2022/01/11 06:28:22;;;;;;;108.10;38.33;;;;;;;4.12;52.19;103152.41;4903430;28;96806;-75
2022/01/11 06:30:49;;;;;;;101.22;35.75;;;;;;;4.29;51.08;103161.63;4903381;28;97727;-76
2022/01/11 06:33:15;;;;;;;97.45;36.55;;;;;;;4.40;51.27;103160.19;4904783;28;100383;-76
2022/01/11 06:35:42;;;;;;;101.00;34.92;;;;;;;4.56;50.91;103158.00;4902512;28;97909;-76
2022/01/11 06:38:09;;;;;;;102.53;37.67;;;;;;;4.64;51.17;103160.00;4905580;28;96896;-76
2022/01/11 06:40:36;;;;;;;105.15;36.60;;;;;;;4.41;51.32;103171.53;4909288;28;97844;-77
2022/01/11 06:43:02;;;;;;;105.97;37.17;;;;;;;4.64;51.23;103169.56;4904622;28;98858;-76
2022/01/11 06:45:29;;;;;;;106.82;35.95;;;;;;;4.56;50.17;103171.09;4911676;28;98731;-77
2022/01/11 06:47:56;;;;;;;109.55;35.67;;;;;;;4.53;50.29;103165.78;4909959;28;96779;-75
2022/01/11 06:50:22;;;;;;;93.55;33.88;;;;;;;4.72;49.86;103168.94;4906060;28;96948;-74
2022/01/11 06:52:49;;;;;;;102.13;35.60;;;;;;;4.67;50.58;103164.41;4910221;28;99425;-74
2022/01/11 06:55:19;;;;;;;100.88;36.28;;;;;;;4.49;50.20;103164.81;4903057;28;98796;-79
2022/01/11 06:57:45;;;;;;;109.80;35.72;;;;;;;4.26;51.85;103165.91;4907371;28;97617;-75
2022/01/11 07:00:16;;;;;;;88.30;33.80;;;;;;;4.09;51.33;103165.38;4907768;28;96821;-75
2022/01/11 07:02:42;;;;;;;99.07;35.22;;;;;;;4.02;51.74;103176.50;4909989;28;101977;-74
2022/01/11 07:05:09;;;;;;;104.43;34.95;;;;;;;3.97;51.94;103172.88;4900621;28;98940;-76
2022/01/11 07:07:36;;;;;;;93.78;35.47;;;;;;;3.90;52.15;103184.00;4905562;28;98398;-75
2022/01/11 07:10:02;;;;;;;89.43;32.78;;;;;;;3.94;52.02;103185.84;4909173;28;96929;-76
2022/01/11 07:12:30;;;;;;;105.03;36.13;;;;;;;4.19;51.83;103187.50;4909780;28;100952;-76
2022/01/11 07:14:56;;;;;;;98.53;35.15;;;;;;;4.27;51.66;103189.47;4909612;28;99218;-78
2022/01/11 07:17:23;;;;;;;95.50;34.08;;;;;;;4.28;51.05;103191.25;4908621;28;97072;-75
2022/01/11 07:19:49;;;;;;;91.78;34.30;;;;;;;4.38;51.28;103195.03;4921323;22;98103;-74
2022/01/11 07:22:16;;;;;;;89.85;33.58;;;;;;;4.15;51.40;103193.47;4913948;28;99139;-73
2022/01/11 07:24:42;;;;;;;97.20;35.75;;;;;;;4.21;51.24;103189.28;4906079;28;99216;-73
2022/01/11 07:27:09;;;;;;;97.22;33.40;;;;;;;4.48;51.08;103206.63;4911228;28;97051;-72
2022/01/11 07:29:36;;;;;;;89.80;31.63;;;;;;;4.43;50.81;103205.63;4915990;28;96803;-74
2022/01/11 07:32:03;;;;;;;97.47;33.70;;;;;;;4.52;50.10;103200.66;4910187;28;99127;-73
2022/01/11 07:34:30;;;;;;;90.25;35.13;;;;;;;4.64;50.92;103199.28;4907947;28;99006;-72
2022/01/11 07:36:56;;;;;;;92.18;36.58;;;;;;;4.68;51.00;103205.47;4913668;28;97146;-72
2022/01/11 07:39:23;;;;;;;97.03;34.90;;;;;;;4.69;50.33;103212.50;4904126;28;98656;-74
2022/01/11 07:41:50;;;;;;;100.43;34.05;;;;;;;4.59;50.06;103213.97;4912123;28;99635;-73
2022/01/11 07:44:17;;;;;;;93.00;33.42;;;;;;;4.66;50.25;103220.28;4906157;28;98896;-74
2022/01/11 07:46:46;;;;;;;90.90;33.75;;;;;;;4.99;49.64;103226.41;4914536;28;97170;-73
2022/01/11 07:49:13;;;;;;;87.03;34.20;;;;;;;4.91;49.91;103233.19;4907283;28;96962;-73
2022/01/11 07:51:40;;;;;;;93.85;34.08;;;;;;;4.80;49.59;103230.28;4918225;28;99036;-74
2022/01/11 07:54:06;;;;;;;87.70;33.63;;;;;;;4.52;49.84;103234.72;4920247;28;99246;-74
2022/01/11 07:56:32;;;;;;;84.55;33.55;;;;;;;4.62;50.53;103240.25;4919532;28;97508;-73
2022/01/11 07:58:59;;;;;;;84.88;32.10;;;;;;;4.58;51.02;103238.38;4917564;28;97046;-73
2022/01/11 08:01:25;;;;;;;90.93;35.05;;;;;;;4.70;50.42;103243.09;4914607;28;99218;-72
2022/01/11 08:03:53;;;;;;;94.70;33.33;;;;;;;4.73;50.11;103241.41;4918919;28;99398;-73
2022/01/11 08:06:19;;;;;;;82.65;31.23;;;;;;;4.48;50.58;103241.56;4905738;28;97306;-72
2022/01/11 08:08:46;;;;;;;85.65;32.38;;;;;;;4.39;51.35;103242.22;4911572;28;97092;-73
2022/01/11 08:11:12;;;;;;;93.70;32.97;;;;;;;4.25;51.10;103243.53;4915171;28;99362;-72
2022/01/11 08:13:40;;;;;;;90.50;34.20;;;;;;;4.47;51.08;103254.59;4912111;28;99390;-75
2022/01/11 08:16:07;;;;;;;81.10;31.73;;;;;;;4.48;50.47;103251.16;4904950;28;97121;-74
2022/01/11 08:18:33;;;;;;;81.20;30.48;;;;;;;4.56;50.94;103247.91;4910093;28;97320;-75
2022/01/11 08:21:01;;;;;;;85.25;32.60;;;;;;;4.73;50.42;103244.03;4910164;28;99016;-74
2022/01/11 08:23:27;;;;;;;81.43;31.27;;;;;;;4.44;50.35;103238.81;4917280;28;98933;-74
2022/01/11 08:25:54;;;;;;;80.25;30.92;;;;;;;4.55;50.83;103250.50;4912805;28;96750;-73
2022/01/11 08:28:20;;;;;;;80.95;30.73;;;;;;;4.71;50.01;103251.00;4917390;28;97240;-72
2022/01/11 08:30:47;;;;;;;86.25;31.98;;;;;;;4.67;49.23;103248.22;4914700;28;99438;-73
2022/01/11 08:33:13;;;;;;;82.15;31.55;;;;;;;4.61;49.89;103253.28;4914125;28;98832;-75
2022/01/11 08:35:40;;;;;;;74.35;28.45;;;;;;;4.74;49.97;103258.03;4915916;28;97641;-73
2022/01/11 08:38:08;;;;;;;78.60;31.73;;;;;;;4.20;51.24;103265.16;4911570;28;97869;-74
2022/01/11 08:40:34;;;;;;;76.50;30.90;;;;;;;4.39;50.97;103260.53;4910891;28;97963;-73
2022/01/11 08:43:03;;;;;;;83.28;31.60;;;;;;;4.76;49.65;103266.81;4912102;28;99403;-73
2022/01/11 08:45:29;;;;;;;72.65;30.90;;;;;;;4.53;50.46;103260.91;4910440;28;96893;-73
2022/01/11 08:47:56;;;;;;;77.10;31.83;;;;;;;4.55;49.89;103264.47;4913667;28;99356;-73
2022/01/11 08:50:22;;;;;;;79.57;30.60;;;;;;;4.86;49.00;103263.59;4909474;28;99095;-76
2022/01/11 08:52:50;;;;;;;71.20;28.52;;;;;;;4.71;49.81;103266.69;4906358;28;99496;-74
2022/01/11 08:55:18;;;;;;;77.38;30.63;;;;;;;4.73;49.24;103274.56;4911039;28;96840;-73
2022/01/11 08:57:45;;;;;;;77.32;30.52;;;;;;;4.99;48.96;103270.09;4911896;28;97722;-73
2022/01/11 09:00:17;;;;;;;75.97;30.17;;;;;;;4.77;49.07;103269.50;4912880;28;99369;-76
2022/01/11 09:02:43;;;;;;;74.35;31.48;;;;;;;4.82;49.31;103273.13;4904317;28;97995;-75
2022/01/11 09:05:10;;;;;;;80.95;31.92;;;;;;;4.77;49.15;103273.84;4914102;28;97091;-74
2022/01/11 09:07:36;;;;;;;78.50;30.83;;;;;;;5.00;48.91;103275.34;4909931;28;98193;-75
2022/01/11 09:10:04;;;;;;;81.10;32.72;;;;;;;4.93;48.51;103268.16;4924031;28;99875;-76
2022/01/11 09:12:33;;;;;;;78.72;31.85;;;;;;;4.77;49.65;103271.22;4910364;28;98829;-72
2022/01/11 09:14:59;;;;;;;74.53;29.88;;;;;;;5.15;48.72;103281.03;4917591;28;96799;-75
2022/01/11 09:17:26;;;;;;;80.05;31.33;;;;;;;5.35;47.93;103267.56;4921062;28;96770;-76
2022/01/11 09:19:53;;;;;;;78.28;30.73;;;;;;;5.21;47.98;103272.44;4916550;28;100999;-75
2022/01/11 09:22:19;;;;;;;79.93;30.58;;;;;;;5.17;48.73;103276.72;4924711;28;99056;-71
2022/01/11 09:24:46;;;;;;;81.63;30.92;;;;;;;4.89;48.70;103282.03;4927618;28;96866;-73
2022/01/11 09:27:13;;;;;;;75.35;30.13;;;;;;;4.98;48.53;103281.41;4931826;28;96916;-78
2022/01/11 09:29:41;;;;;;;75.13;30.45;;;;;;;4.79;49.20;103280.03;4930085;28;96770;-77
2022/01/11 09:32:10;;;;;;;72.45;29.63;;;;;;;5.06;48.20;103278.13;4929423;28;98100;-76
2022/01/11 09:34:39;;;;;;;72.75;28.88;;;;;;;5.06;48.03;103280.75;4937117;28;96793;-76
2022/01/11 09:37:05;;;;;;;77.00;30.27;;;;;;;5.24;47.28;103269.03;4932633;28;96830;-76
2022/01/11 09:39:32;;;;;;;72.55;29.35;;;;;;;5.37;47.33;103279.88;4924840;28;98515;-76
2022/01/11 09:41:59;;;;;;;73.97;28.88;;;;;;;5.20;47.60;103268.91;4938836;28;97817;-76
2022/01/11 09:44:26;;;;;;;69.15;28.60;;;;;;;5.12;48.10;103267.81;4928247;28;96644;-77
2022/01/11 09:46:54;;;;;;;69.13;28.27;;;;;;;4.80;48.65;103272.19;4922330;28;96777;-75
2022/01/11 09:49:21;;;;;;;71.57;29.98;;;;;;;4.88;48.93;103275.03;4916639;28;99438;-76
2022/01/11 09:51:48;;;;;;;73.60;29.25;;;;;;;4.87;49.44;103273.25;4911201;28;102112;-75
2022/01/11 09:54:14;;;;;;;75.18;29.35;;;;;;;5.13;47.89;103268.72;4921455;28;97452;-76
2022/01/11 09:56:41;;;;;;;74.75;28.73;;;;;;;5.32;46.92;103277.94;4915002;28;96835;-75
2022/01/11 09:59:08;;;;;;;71.53;27.63;;;;;;;4.73;49.68;103272.84;4911160;28;101043;-76
2022/01/11 10:01:36;;;;;;;70.03;29.10;;;;;;;5.12;48.66;103267.81;4914218;28;99398;-76
2022/01/11 10:04:07;;;;;;;72.82;28.92;;;;;;;5.30;47.82;103264.81;4919468;28;97329;-78
2022/01/11 10:06:37;;;;;;;73.65;30.23;;;;;;;5.49;47.37;103272.31;4929524;28;98375;-79
2022/01/11 10:09:17;;;;;;;69.10;28.42;;;;;;;5.74;47.19;103262.41;4923600;28;99863;-75
2022/01/11 10:11:47;;;;;;;68.53;28.98;;;;;;;5.50;47.49;103262.72;4907131;28;99367;-76
2022/01/11 10:14:19;;;;;;;66.97;28.13;;;;;;;5.16;46.78;103266.19;4920477;28;96802;-76
2022/01/11 10:16:45;;;;;;;74.22;29.45;;;;;;;5.47;47.01;103265.25;4913988;28;98273;-78
2022/01/11 10:19:26;;;;;;;64.65;27.45;;;;;;;5.15;47.28;103256.53;4917794;28;99575;-75
2022/01/11 10:21:54;;;;;;;65.90;27.10;;;;;;;5.27;47.51;103263.84;4913545;28;98877;-76
2022/01/11 10:24:26;;;;;;;64.15;27.95;;;;;;;5.18;47.66;103251.41;4913532;28;96905;-77
2022/01/11 10:26:56;;;;;;;65.70;27.35;;;;;;;5.13;48.15;103264.34;4922898;28;96775;-75
2022/01/11 10:29:32;;;;;;;67.05;27.60;;;;;;;5.07;48.24;103265.94;4913451;28;98931;-76
2022/01/11 10:32:00;;;;;;;73.45;27.92;;;;;;;5.11;47.97;103280.91;4917930;28;98598;-76
2022/01/11 10:34:31;;;;;;;64.25;26.17;;;;;;;5.31;47.44;103277.09;4922570;28;97221;-76
2022/01/11 10:37:00;;;;;;;57.90;26.25;;;;;;;5.29;47.36;103280.50;4915187;28;97455;-75
2022/01/11 10:39:33;;;;;;;58.28;24.92;;;;;;;5.17;47.75;103275.84;4917780;28;98265;-76
2022/01/11 10:42:01;;;;;;;61.00;26.77;;;;;;;5.57;47.16;103277.75;4908759;28;99349;-76
2022/01/11 10:44:51;;;;;;;60.15;26.63;;;;;;;5.81;46.66;103269.59;4913871;28;97016;-77
2022/01/11 10:47:24;;;;;;;60.22;26.00;;;;;;;5.96;46.37;103265.63;4909101;28;97045;-76
2022/01/11 10:49:53;;;;;;;62.92;28.08;;;;;;;5.89;46.64;103262.84;4912694;28;98970;-76
2022/01/11 10:52:22;;;;;;;57.85;26.30;;;;;;;5.70;46.27;103258.84;4918030;28;99014;-75
2022/01/11 10:54:50;;;;;;;58.75;26.75;;;;;;;5.86;46.12;103263.59;4937019;28;96836;-77
2022/01/11 10:57:21;;;;;;;63.65;26.50;;;;;;;5.65;46.14;103265.69;4939539;28;96643;-76
2022/01/11 11:00:15;;;;;;;59.00;26.25;;;;;;;5.97;45.78;103256.88;4930737;28;99425;-76
2022/01/11 11:02:43;;;;;;;60.83;25.75;;;;;;;5.97;46.52;103256.88;4927278;28;96862;-75
2022/01/11 11:05:21;;;;;;;59.08;25.95;;;;;;;5.91;45.91;103262.00;4916917;28;97209;-74
2022/01/11 11:08:08;;;;;;;64.40;26.65;;;;;;;5.93;45.85;103259.41;4905805;28;96798;-72
2022/01/11 11:10:44;;;;;;;58.83;26.08;;;;;;;5.81;45.92;103257.34;4914848;28;98592;-73
2022/01/11 11:13:19;;;;;;;58.55;25.67;;;;;;;5.68;46.30;103268.41;4919423;28;97688;-75
2022/01/11 11:15:45;;;;;;;56.70;25.73;;;;;;;5.82;46.37;103267.00;4932047;28;96717;-70